createdAt,value
2023-03-17T00:00:11.386Z,3.47
2023-03-17T00:08:05.216Z,2.89
2023-03-17T00:13:37.304Z,3.04
2023-03-17T00:19:09.521Z,3.10
2023-03-17T00:24:41.820Z,3.11
2023-03-17T00:30:13.714Z,3.04
2023-03-17T00:35:45.458Z,2.94
2023-03-17T00:41:17.493Z,2.87
2023-03-17T00:46:49.431Z,2.79
2023-03-17T00:52:20.862Z,2.67
2023-03-17T00:57:52.687Z,2.55
2023-03-17T01:03:24.803Z,2.48
2023-03-17T01:08:56.398Z,2.39
2023-03-17T01:14:28.371Z,2.38
2023-03-17T01:19:59.871Z,2.39
2023-03-17T01:25:31.666Z,2.37
2023-03-17T01:31:03.643Z,2.32
2023-03-17T01:36:35.163Z,2.28
2023-03-17T01:42:06.969Z,2.25
2023-03-17T01:47:38.466Z,2.23
2023-03-17T01:53:09.985Z,2.21
2023-03-17T01:58:41.998Z,2.16
2023-03-17T02:04:13.694Z,2.13
2023-03-17T02:09:45.457Z,2.06
2023-03-17T02:15:17.409Z,1.97
2023-03-17T02:20:49.605Z,1.94
2023-03-17T02:26:22.080Z,1.92
2023-03-17T02:31:54.135Z,1.87
2023-03-17T02:37:25.839Z,1.82
2023-03-17T02:48:28.270Z,1.64
2023-03-17T02:54:00.345Z,1.58
2023-03-17T02:59:32.835Z,1.53
2023-03-17T03:05:04.716Z,1.52
2023-03-17T03:10:36.633Z,1.49
2023-03-17T03:16:08.094Z,1.51
2023-03-17T03:22:04.498Z,1.30
2023-03-17T03:27:36.528Z,1.43
2023-03-17T03:33:08.478Z,1.47
2023-03-17T03:38:40.118Z,1.52
2023-03-17T03:44:11.952Z,1.56
2023-03-17T03:49:43.871Z,1.56
2023-03-17T03:55:15.726Z,1.52
2023-03-17T04:00:47.839Z,1.49
2023-03-17T04:06:19.410Z,1.46
2023-03-17T04:11:51.702Z,1.41
2023-03-17T04:17:23.379Z,1.34
2023-03-17T04:22:55.923Z,1.30
2023-03-17T04:28:27.981Z,1.34
2023-03-17T04:34:00.004Z,1.43
2023-03-17T04:39:32.106Z,1.47
2023-03-17T04:45:04.230Z,1.39
2023-03-17T04:50:36.072Z,1.32
2023-03-17T04:56:07.396Z,1.26
2023-03-17T05:01:39.337Z,1.25
2023-03-17T05:07:11.051Z,1.22
2023-03-17T05:12:42.853Z,1.19
2023-03-17T05:18:14.792Z,1.30
2023-03-17T05:23:46.641Z,1.41
2023-03-17T05:29:18.888Z,1.44
2023-03-17T05:34:50.790Z,1.49
2023-03-17T05:40:23.929Z,1.58
2023-03-17T05:45:54.435Z,1.63
2023-03-17T05:51:26.331Z,1.63
2023-03-17T05:56:58.128Z,1.72
2023-03-17T06:02:29.875Z,1.83
2023-03-17T06:08:01.756Z,2.04
2023-03-17T06:13:33.823Z,2.38
2023-03-17T06:19:05.746Z,2.81
2023-03-17T06:24:37.627Z,3.17
2023-03-17T06:30:09.289Z,3.50
2023-03-17T06:35:41.706Z,3.73
2023-03-17T06:41:13.661Z,3.89
2023-03-17T06:46:45.412Z,3.90
2023-03-17T06:52:16.949Z,4.08
2023-03-17T06:57:50.935Z,4.52
2023-03-17T07:05:42.759Z,6.15
2023-03-17T07:11:14.350Z,6.45
2023-03-17T07:22:15.870Z,6.98
2023-03-17T07:27:47.976Z,7.41
2023-03-17T07:33:19.878Z,8.05
2023-03-17T07:38:51.565Z,8.45
2023-03-17T07:44:23.238Z,9.07
2023-03-17T07:49:55.301Z,9.63
2023-03-17T07:55:26.991Z,9.90
2023-03-17T08:00:58.960Z,10.38
2023-03-17T08:06:30.372Z,10.62
2023-03-17T08:12:02.683Z,10.69
2023-03-17T08:17:34.758Z,11.00
2023-03-17T08:23:06.531Z,11.37
2023-03-17T08:28:38.439Z,11.91
2023-03-17T08:34:11.013Z,12.42
2023-03-17T08:39:42.993Z,12.66
2023-03-17T08:45:15.082Z,12.70
2023-03-17T08:50:46.307Z,12.82
2023-03-17T08:56:18.165Z,12.92
2023-03-17T09:01:50.222Z,12.96
2023-03-17T09:07:22.384Z,13.09
2023-03-17T09:12:54.436Z,13.20
2023-03-17T09:18:26.315Z,13.21
2023-03-17T09:23:59.263Z,13.11
2023-03-17T09:29:29.771Z,13.47
2023-03-17T09:35:01.720Z,13.87
2023-03-17T09:40:34.223Z,14.32
2023-03-17T09:46:06.051Z,14.92
2023-03-17T09:51:38.126Z,14.93
2023-03-17T09:57:10.301Z,14.93
2023-03-17T10:02:42.458Z,14.87
2023-03-17T10:08:29.656Z,14.51
2023-03-17T10:13:46.321Z,14.49
2023-03-17T10:19:17.810Z,14.45
2023-03-17T10:24:49.604Z,14.23
2023-03-17T10:30:21.816Z,14.13
2023-03-17T10:35:54.265Z,14.25
2023-03-17T10:41:26.802Z,14.54
2023-03-17T10:46:58.547Z,14.87
2023-03-17T10:52:30.545Z,15.21
2023-03-17T10:58:02.588Z,15.48
2023-03-17T11:03:34.378Z,15.67
2023-03-17T11:09:05.886Z,15.63
2023-03-17T11:14:37.666Z,15.62
2023-03-17T11:20:09.359Z,15.78
2023-03-17T11:25:41.528Z,15.81
2023-03-17T11:31:13.861Z,15.57
2023-03-17T11:36:45.460Z,15.47
2023-03-17T11:42:17.229Z,15.61
2023-03-17T11:53:18.930Z,15.89
2023-03-17T11:58:50.729Z,16.04
2023-03-17T12:04:22.895Z,16.18
2023-03-17T12:09:54.928Z,16.19
2023-03-17T12:15:27.189Z,16.18
2023-03-17T12:20:59.421Z,16.17
2023-03-17T12:26:31.000Z,16.20
2023-03-17T12:32:03.215Z,16.24
2023-03-17T12:37:35.536Z,16.32
2023-03-17T12:45:30.071Z,16.47
2023-03-17T12:51:01.256Z,16.71
2023-03-17T12:56:33.495Z,17.01
2023-03-17T13:02:05.623Z,17.30
2023-03-17T13:07:38.048Z,17.39
2023-03-17T13:13:09.856Z,17.50
2023-03-17T13:18:41.505Z,17.65
2023-03-17T13:24:13.960Z,17.53
2023-03-17T13:29:45.823Z,17.29
2023-03-17T13:35:17.287Z,17.22
2023-03-17T13:40:48.934Z,17.20
2023-03-17T13:46:20.698Z,17.21
2023-03-17T13:51:59.486Z,17.13
2023-03-17T13:57:24.139Z,17.19
2023-03-17T14:03:19.812Z,17.30
2023-03-17T14:08:50.954Z,17.40
2023-03-17T14:14:32.086Z,17.54
2023-03-17T14:19:53.651Z,17.69
2023-03-17T14:25:25.162Z,17.64
2023-03-17T14:30:56.817Z,17.71
2023-03-17T14:36:28.159Z,17.88
2023-03-17T14:42:00.002Z,17.88
2023-03-17T14:47:32.076Z,17.90
2023-03-17T14:53:04.326Z,17.84
2023-03-17T14:58:35.978Z,17.60
2023-03-17T15:09:37.151Z,17.25
2023-03-17T15:15:09.386Z,17.08
2023-03-17T15:20:41.106Z,17.07
2023-03-17T15:26:13.350Z,17.07
2023-03-17T15:31:45.468Z,17.15
2023-03-17T15:37:17.508Z,17.14
2023-03-17T15:42:49.392Z,17.05
2023-03-17T15:48:20.908Z,17.05
2023-03-17T15:53:52.381Z,16.99
2023-03-17T15:59:23.562Z,16.87
2023-03-17T16:04:55.250Z,16.74
2023-03-17T16:10:26.820Z,16.59
2023-03-17T16:15:58.584Z,16.53
2023-03-17T16:21:30.189Z,16.64
2023-03-17T16:27:02.349Z,16.70
2023-03-17T16:32:34.146Z,16.65
2023-03-17T16:38:05.401Z,16.52
2023-03-17T16:43:37.350Z,16.35
2023-03-17T16:49:09.070Z,16.23
2023-03-17T16:54:40.971Z,16.15
2023-03-17T17:00:12.608Z,15.93
2023-03-17T17:05:44.642Z,15.65
2023-03-17T17:11:16.681Z,15.39
2023-03-17T17:16:48.449Z,15.23
2023-03-17T17:24:42.150Z,14.47
2023-03-17T17:30:14.114Z,14.56
2023-03-17T17:35:45.599Z,14.44
2023-03-17T17:41:17.277Z,14.28
2023-03-17T17:52:18.591Z,14.04
2023-03-17T17:57:52.383Z,13.90
2023-03-17T18:03:22.048Z,13.71
2023-03-17T18:08:54.267Z,13.55
2023-03-17T18:14:26.274Z,13.39
2023-03-17T18:19:58.637Z,13.24
2023-03-17T18:25:30.815Z,13.13
2023-03-17T18:31:03.303Z,13.02
2023-03-17T18:36:35.214Z,12.85
2023-03-17T18:42:07.093Z,12.70
2023-03-17T18:47:38.666Z,12.59
2023-03-17T18:53:10.261Z,12.52
2023-03-17T18:58:42.386Z,12.43
2023-03-17T19:04:13.872Z,12.28
2023-03-17T19:09:46.026Z,12.14
2023-03-17T19:15:17.914Z,12.07
2023-03-17T19:20:50.238Z,12.02
2023-03-17T19:26:22.151Z,11.94
2023-03-17T19:31:54.168Z,11.83
2023-03-17T19:37:26.252Z,11.70
2023-03-17T19:42:58.010Z,11.55
2023-03-17T19:48:29.749Z,11.39
2023-03-17T19:54:01.361Z,11.22
2023-03-17T19:59:33.312Z,11.05
2023-03-17T20:05:05.097Z,10.90
2023-03-17T20:10:37.437Z,10.74
2023-03-17T20:16:09.288Z,10.59
2023-03-17T20:21:41.044Z,10.46
2023-03-17T20:27:12.680Z,10.34
2023-03-17T20:32:44.815Z,10.22
2023-03-17T20:38:16.674Z,10.10
2023-03-17T20:43:48.270Z,9.97
2023-03-17T20:49:20.317Z,9.84
2023-03-17T20:54:51.926Z,9.72
2023-03-17T21:00:23.808Z,9.59
2023-03-17T21:05:55.370Z,9.45
2023-03-17T21:11:27.148Z,9.31
2023-03-17T21:16:58.720Z,9.17
2023-03-17T21:22:30.368Z,9.05
2023-03-17T21:28:02.571Z,8.91
2023-03-17T21:33:34.315Z,8.77
2023-03-17T21:39:06.300Z,8.64
2023-03-17T21:44:38.399Z,8.51
2023-03-17T21:50:10.589Z,8.39
2023-03-17T21:55:42.054Z,8.28
2023-03-17T22:01:14.205Z,8.18
2023-03-17T22:06:46.014Z,8.10
2023-03-17T22:12:17.883Z,8.01
2023-03-17T22:17:49.582Z,7.93
2023-03-17T22:23:21.762Z,7.86
2023-03-17T22:28:53.258Z,7.79
2023-03-17T22:34:25.990Z,7.73
2023-03-17T22:39:58.150Z,7.66
2023-03-17T22:45:29.950Z,7.58
2023-03-17T22:51:01.410Z,7.51
2023-03-17T22:56:33.374Z,7.43
2023-03-17T23:02:04.915Z,7.36
2023-03-17T23:07:48.017Z,7.29
2023-03-17T23:13:07.749Z,7.22
2023-03-17T23:18:39.373Z,7.15
2023-03-17T23:24:11.182Z,7.09
2023-03-17T23:29:43.048Z,7.04
2023-03-17T23:35:14.897Z,7.00
2023-03-17T23:40:46.538Z,6.97
2023-03-17T23:46:18.456Z,6.94
2023-03-17T23:51:50.733Z,6.90
2023-03-17T23:57:22.378Z,6.86
